• Join FlightAware (Why Join?)
  • Login
  • US Flag 
10:17PM EDT


 

Airport Tracker/Info


-or-


 

Live Flight TrackerFlight Track Log ✈ UAL4457 ✈ 21-Apr-2013 ✈ KLEX - KIAH

Flight Track Log - Related Links

Times and Time Zones

All times are in EDT time to prevent confusion due to time zone crossing. See the UAL4457 flight status page for this flight to view local times or setup timezone preferences in your user account.

Time Position Orientation Groundspeed Altitude Reporting Facility
EDT Latitude Longitude Course Direction KTS MPH feet Rate Location/Type
06:00PM 38.1317 -84.5914 333° Northwest 239 275 5,500  Level Indianapolis Center
06:01PM 38.1814 -84.6517 316° Northwest 245 282 8,300 2,280 Climbing Indianapolis Center
06:02PM 38.1992 -84.7417 284° West 286 329 10,300 1,380 Climbing Indianapolis Center
06:03PM 38.1592 -84.8375 242° Southwest 301 346 11,200 1,200 Climbing Indianapolis Center
06:04PM 38.1147 -84.9472 243° Southwest 333 383 12,800 1,740 Climbing Indianapolis Center
06:05PM 38.0567 -85.0803 241° Southwest 358 412 14,800 1,740 Climbing Indianapolis Center
06:06PM 38.0081 -85.1936 241° Southwest 364 419 16,500 1,500 Climbing Indianapolis Center
06:07PM 37.9661 -85.2925 242° Southwest 365 420 18,000 1,740 Climbing Indianapolis Center
06:08PM 37.9089 -85.4242 241° Southwest 356 410 20,200 1,800 Climbing Indianapolis Center
06:09PM 37.8631 -85.5314 242° Southwest 346 398 21,800 1,320 Climbing Indianapolis Center
06:10PM 37.8147 -85.6419 241° Southwest 356 410 23,000 1,200 Climbing Indianapolis Center
06:11PM 37.7653 -85.7550 241° Southwest 364 419 24,400 1,320 Climbing Indianapolis Center
06:12PM 37.7164 -85.8703 242° Southwest 369 425 25,800 1,380 Climbing Indianapolis Center
06:13PM 37.6669 -85.9817 241° Southwest 364 419 27,300 1,380 Climbing Indianapolis Center
06:15PM 37.6183 -86.0911 241° Southwest 357 411 28,700 1,380 Climbing Indianapolis Center
06:16PM 37.5642 -86.2150 241° Southwest 352 405 30,200 1,320 Climbing Indianapolis Center
06:16PM 37.5336 -86.2853 241° Southwest 353 406 30,800 1,140 Climbing Memphis Center
06:17PM 37.4892 -86.3842 240° Southwest 349 402 32,000 1,140 Climbing Memphis Center
06:18PM 37.4678 -86.4333 241° Southwest 353 406 32,600 1,020 Climbing Indianapolis Center
06:19PM 37.4189 -86.5417 240° Southwest 354 407 33,700 960 Climbing Indianapolis Center
06:20PM 37.3706 -86.6500 241° Southwest 353 406 34,700 1,020 Climbing Indianapolis Center
06:20PM 37.3469 -86.7044 241° Southwest 355 409 35,200 900 Climbing Memphis Center
06:21PM 37.2997 -86.8083 240° Southwest 355 409 36,000 360 Climbing Memphis Center
06:22PM 37.2508 -86.9200 241° Southwest 360 414 36,000  Level Memphis Center
06:23PM 37.1978 -87.0342 240° Southwest 374 430 36,000  Level Memphis Center
06:24PM 37.1506 -87.1378 240° Southwest 381 438 36,000  Level Memphis Center
06:25PM 37.0933 -87.2622 240° Southwest 399 459 36,000  Level Memphis Center
06:26PM 37.0381 -87.3864 241° Southwest 406 467 36,000  Level Memphis Center
06:27PM 36.9803 -87.5081 239° Southwest 406 467 36,000  Level Memphis Center
06:28PM 36.9247 -87.6294 240° Southwest 414 476 36,000  Level Memphis Center
06:29PM 36.8692 -87.7558 241° Southwest 414 476 36,000  Level Memphis Center
06:30PM 36.8092 -87.8822 239° Southwest 419 482 36,000  Level Memphis Center
06:31PM 36.7531 -88.0031 240° Southwest 414 476 36,000  Level Memphis Center
06:32PM 36.6931 -88.1394 241° Southwest 414 476 36,000  Level Memphis Center
06:33PM 36.6369 -88.2572 239° Southwest 409 471 36,000  Level Memphis Center
06:34PM 36.5783 -88.3750 238° Southwest 409 471 36,000  Level Memphis Center
06:35PM 36.5219 -88.4928 239° Southwest 409 471 36,000  Level Memphis Center
06:36PM 36.4653 -88.6153 240° Southwest 409 471 36,000  Level Memphis Center
06:37PM 36.4044 -88.7325 237° Southwest 414 476 36,000  Level Memphis Center
06:38PM 36.3244 -88.8372 227° Southwest 414 476 36,000  Level Memphis Center
06:39PM 36.2422 -88.9392 225° Southwest 414 476 36,000  Level Memphis Center
06:40PM 36.1619 -89.0433 226° Southwest 419 482 36,000  Level Memphis Center
06:41PM 36.0797 -89.1447 225° Southwest 419 482 36,000  Level Memphis Center
06:42PM 36.0033 -89.2433 226° Southwest 413 475 36,000  Level Memphis Center
06:43PM 35.9272 -89.3444 227° Southwest 408 470 36,000  Level Memphis Center
06:44PM 35.8569 -89.4325 225° Southwest 408 470 36,000  Level Memphis Center
06:45PM 35.7764 -89.5331 225° Southwest 408 470 36,000  Level Memphis Center
06:46PM 35.6978 -89.6361 227° Southwest 408 470 36,000  Level Memphis Center
06:47PM 35.6211 -89.7364 227° Southwest 403 464 36,000  Level Memphis Center
06:48PM 35.5444 -89.8339 226° Southwest 403 464 36,000  Level Memphis Center
06:49PM 35.4633 -89.9364 226° Southwest 410 472 36,000  Level Memphis Center
06:50PM 35.3844 -90.0336 225° Southwest 402 463 36,000  Level Memphis Center
06:51PM 35.3056 -90.1331 226° Southwest 407 468 36,000  Level Memphis Center
06:52PM 35.2264 -90.2350 226° Southwest 407 468 36,000  Level Memphis Center
06:53PM 35.1450 -90.3317 224° Southwest 407 468 36,000  Level Memphis Center
06:54PM 35.0678 -90.4281 226° Southwest 407 468 36,000  Level Memphis Center
06:55PM 34.9883 -90.5269 226° Southwest 407 468 36,000  Level Memphis Center
06:56PM 34.9006 -90.6306 224° Southwest 407 468 36,000  Level Memphis Center
06:57PM 34.8192 -90.7314 226° Southwest 402 463 36,000  Level Memphis Center
06:58PM 34.7394 -90.8272 225° Southwest 407 468 36,000  Level Memphis Center
06:59PM 34.6578 -90.9278 225° Southwest 412 474 36,000  Level Memphis Center
07:00PM 34.5758 -91.0256 225° Southwest 412 474 36,000  Level Memphis Center
07:01PM 34.4958 -91.1258 226° Southwest 407 468 36,000  Level Memphis Center
07:02PM 34.4161 -91.2181 224° Southwest 407 468 36,000  Level Memphis Center
07:03PM 34.3381 -91.3131 225° Southwest 407 468 36,000  Level Memphis Center
07:04PM 34.2581 -91.4075 224° Southwest 402 463 36,000  Level Memphis Center
07:05PM 34.1758 -91.5019 224° Southwest 402 463 36,000  Level Memphis Center
07:06PM 34.0978 -91.5989 226° Southwest 409 471 36,000  Level Memphis Center
07:07PM 34.0258 -91.6831 224° Southwest 409 471 36,000  Level Memphis Center
07:08PM 33.9433 -91.7894 227° Southwest 404 465 36,000  Level Memphis Center
07:10PM 33.7525 -92.0103 224° Southwest 413 475 36,000  Level Fort Worth Center
07:11PM 33.6789 -92.0947 224° Southwest 413 475 36,000  Level Fort Worth Center
07:12PM 33.5972 -92.1919 225° Southwest 413 475 36,000  Level Fort Worth Center
07:13PM 33.5136 -92.2864 223° Southwest 413 475 36,000  Level Fort Worth Center
07:14PM 33.4361 -92.3806 225° Southwest 413 475 36,000  Level Fort Worth Center
07:15PM 33.3236 -92.4367 203° Southwest 413 475 36,000  Level Fort Worth Center
07:16PM 33.2011 -92.4558 187° South 418 481 36,000  Level Fort Worth Center
07:17PM 33.0767 -92.4753 187° South 439 505 36,000  Level Fort Worth Center
07:18PM 32.9544 -92.4969 188° South 449 517 36,000  Level Fort Worth Center
07:19PM 32.8361 -92.5183 189° South 449 517 36,000  Level Fort Worth Center
07:21PM 32.5856 -92.5683 190° South 447 514 36,000  Level Houston Center
07:22PM 32.4622 -92.5878 188° South 447 514 36,000  Level Houston Center
07:23PM 32.3400 -92.6122 190° South 447 514 36,000  Level Houston Center
07:24PM 32.2175 -92.6339 189° South 446 513 36,000  Level Houston Center
07:25PM 32.0950 -92.6564 189° South 445 512 36,000  Level Houston Center
07:26PM 31.9742 -92.6814 190° South 442 509 36,000  Level Houston Center
07:28PM 31.8678 -92.7794 218° Southwest 405 466 36,000  Level Houston Center
07:29PM 31.7836 -92.8622 220° Southwest 398 458 36,000  Level Houston Center
07:30PM 31.6947 -92.9417 217° Southwest 402 463 36,000  Level Houston Center
07:31PM 31.6103 -93.0264 221° Southwest 399 459 36,000  Level Houston Center
07:32PM 31.5258 -93.1103 220° Southwest 398 458 36,000  Level Houston Center
07:33PM 31.4383 -93.1917 218° Southwest 401 461 36,000 -120 Level Houston Center
07:34PM 31.3453 -93.2819 220° Southwest 405 466 35,800 -720 Descending Houston Center
07:35PM 31.2469 -93.3756 219° Southwest 407 468 34,600 -1,020 Descending Houston Center
07:36PM 31.1739 -93.4639 226° Southwest 387 445 33,700 -960 Descending Houston Center
07:37PM 31.1131 -93.5664 235° Southwest 396 456 32,700 -1,020 Descending Houston Center
07:38PM 31.0211 -93.6475 217° Southwest 415 478 31,700 -1,440 Descending Houston Center
07:39PM 30.9117 -93.7436 217° Southwest 413 475 29,800 -1,860 Descending Houston Center
07:40PM 30.8189 -93.8242 217° Southwest 417 480 27,900 -2,040 Descending Houston Center
07:41PM 30.7256 -93.9056 217° Southwest 421 484 25,600 -2,640 Descending Houston Center
07:42PM 30.6411 -93.9806 217° Southwest 404 465 23,000 -2,940 Descending Houston Center
07:42PM 30.5908 -94.0236 216° Southwest 397 457 21,400 -2,460 Descending Houston Center
07:43PM 30.5506 -94.0592 217° Southwest 397 457 20,000 -3,000 Descending Houston Center
07:44PM 30.4964 -94.1069 217° Southwest 381 438 18,100 -3,240 Descending Houston Center
07:44PM 30.4489 -94.1472 216° Southwest 385 443 16,700 -2,640 Descending Houston Center
07:45PM 30.4072 -94.1819 216° Southwest 380 437 15,400 -2,640 Descending Houston Center
07:45PM 30.3647 -94.2200 218° Southwest 381 438 14,000 -2,340 Descending Houston Center
07:45PM 30.3317 -94.2475 216° Southwest 376 433 13,300 -1,560 Descending Houston Center
07:46PM 30.2833 -94.2886 216° Southwest 371 427 12,400 -1,560 Descending Houston Center
07:47PM 30.2406 -94.3250 216° Southwest 326 375 11,600 -1,500 Descending Houston Center
07:47PM 30.2117 -94.3522 219° Southwest 339 390 10,900 -1,440 Descending Houston Center
07:48PM 30.1925 -94.3919 241° Southwest 279 321 10,300 -1,020 Descending Houston Center
07:48PM 30.1867 -94.4347 261° West 287 330 9,900 -300 Descending Houston Center
07:49PM 30.1767 -94.4858 257° West 269 310 10,000 60 Climbing Houston Center
07:49PM 30.1719 -94.5172 260° West 269 310 10,000  Level Houston Center
07:50PM 30.1614 -94.5675 256° West 269 310 10,000 -300 Level Houston Center
07:50PM 30.1536 -94.6197 260° West 270 311 9,700 -840 Descending Houston Center
07:51PM 30.1472 -94.6589 259° West 272 313 9,200 -1,020 Descending Houston Center
07:51PM 30.1403 -94.7042 260° West 271 312 8,700 -1,020 Descending Houston Center
07:52PM 30.1322 -94.7431 257° West 260 299 8,200 -1,080 Descending Houston Center
07:52PM 30.1256 -94.7858 260° West 263 303 7,600 -1,020 Descending Houston Center
07:53PM 30.1189 -94.8219 258° West 256 295 7,200 -1,020 Descending Houston Center
07:53PM 30.1119 -94.8672 260° West 260 299 6,600 -1,140 Descending Houston Center
07:54PM 30.1056 -94.9033 258° West 259 298 6,100 -600 Descending Houston Center
07:54PM 30.1053 -94.9489 270° West 259 298 6,000 -120 Descending Houston Center
07:55PM 30.1058 -94.9953 271° West 271 312 6,000  Level Houston Center
07:55PM 30.1064 -95.0344 271° West 267 307 6,000  Level Houston Center
07:56PM 30.1056 -95.0822 269° West 265 305 6,000  Level Houston Center
07:56PM 30.1072 -95.1356 272° West 264 304 6,000  Level Houston Center
07:57PM 30.1069 -95.1642 269° West 259 298 6,000  Level Houston Center
07:57PM 30.1072 -95.2144 270° West 251 289 6,000  Level Houston Center
07:58PM 30.1064 -95.2489 268° West 249 287 6,000  Level Houston Center
07:59PM 30.1075 -95.2967 272° West 255 293 6,000 -120 Level Houston Center
07:59PM 30.1056 -95.3311 266° West 257 296 5,900 -900 Descending Houston Center
08:00PM 30.1081 -95.3775 274° West 252 290 5,100 -1,380 Descending Houston Center
08:00PM 30.1067 -95.4131 267° West 260 299 4,500 -1,380 Descending Houston Center
08:01PM 30.1069 -95.4603 270° West 257 296 3,700 -1,380 Descending Houston Center
08:01PM 30.0961 -95.5061 255° West 259 298 3,000 -780 Descending Houston Center
08:02PM 30.0581 -95.5089 184° South 260 299 2,900 -420 Descending Houston Center
08:02PM 30.0364 -95.4939 149° Southeast 237 273 2,600 -1,020 Descending Houston Center
08:03PM 30.0217 -95.4542 113° Southeast 238 274 1,900 -1,080 Descending Houston Center
08:03PM 30.0122 -95.4364 122° Southeast 201 231 1,600 -1,080 Descending Houston Center
08:04PM 30.0075 -95.4031 99° East 194 223 800 -1,020 Descending Houston Center
08:04PM 30.0058 -95.3889 98° East 123 142 600 -840 Descending Houston Center